This is the latest recevied weather packets stored in our database for station/object N6XE. If no packets are shown the sender has not sent any weather packets the latest 10 day(s).
| Time | Temp. | Humidity | Pressure | Rain* | Wind** | Luminosity | Snow |
|---|---|---|---|---|---|---|---|
| 1777967743 | 12.22° C | 99% | 1018.3 hPa | 1.02 mm | - | - | - |
| 1777965322 | 12.78° C | 98% | 1018.1 hPa | 0 mm | - | - | - |
| 1777960520 | 13.33° C | 88% | 1017.9 hPa | 0 mm | - | - | - |
| 1777959924 | 13.33° C | 87% | 1017.9 hPa | 0 mm | - | - | - |
| 1777957524 | 13.89° C | 85% | 1018.1 hPa | 0 mm | - | - | - |
| 1777956928 | 14.44° C | 84% | 1018 hPa | 0 mm | - | - | - |
| 1777952127 | 15° C | 81% | 1017.2 hPa | 0 mm | - | - | - |
| 1777950918 | 15.56° C | 84% | 1017 hPa | 0 mm | - | - | - |
| 1777935917 | 17.22° C | 73% | 1017.5 hPa | 0 mm | - | - | - |
| 1777929329 | 19.44° C | 67% | 1017.7 hPa | 0 mm | - | - | - |
| 1777926338 | 19.44° C | 70% | 1017.8 hPa | 0 mm | - | - | - |
| 1777925719 | 18.33° C | 73% | 1017.9 hPa | 0 mm | - | - | - |
| 1777924527 | 17.78° C | 72% | 1017.9 hPa | 0 mm | - | - | - |
| 1777921525 | 16.67° C | 77% | 1018.1 hPa | 0 mm | - | - | - |
| 1777920318 | 16.67° C | 76% | 1018.2 hPa | 0 mm | - | - | - |
| 1777919126 | 16.67° C | 76% | 1018.2 hPa | 0 mm | - | - | - |
| 1777913729 | 15.56° C | 74% | 1017.9 hPa | 0 mm | - | - | - |
| 1777913115 | 15° C | 77% | 1017.8 hPa | 0 mm | - | - | - |
| 1777910732 | 14.44° C | 78% | 1017.7 hPa | 0 mm | - | - | - |
| 1777907718 | 13.89° C | 82% | 1017.7 hPa | 0 mm | - | - | - |
| 1777905931 | 13.89° C | 81% | 1017.9 hPa | 0 mm | - | - | - |
| 1777899920 | 12.78° C | 85% | 1017.3 hPa | 0 mm | - | - | - |
| 1777896923 | 12.78° C | 84% | 1016.9 hPa | 0 mm | - | - | - |
| 1777892718 | 13.33° C | 82% | 1016.9 hPa | 0 mm | - | - | - |
| 1777892122 | 13.33° C | 82% | 1016.9 hPa | 0 mm | - | - | - |
* Rain latest hour (hover to see other rain measurements)
** Current wind speed in m/s (hover to see current wind gust speed)